sensor_id;sensor_type;location;lat;lon;timestamp;pressure;altitude;pressure_sealevel;temperature;humidity
37832;BME280;23671;38.090;-122.570;2022-09-09T00:04:23;100283.41;;;36.25;31.41
37832;BME280;23671;38.090;-122.570;2022-09-09T00:09:46;100280.66;;;36.25;30.81
37832;BME280;23671;38.090;-122.570;2022-09-09T00:12:23;100274.22;;;36.29;30.93
37832;BME280;23671;38.090;-122.570;2022-09-09T00:15:02;100270.16;;;36.27;31.41
37832;BME280;23671;38.090;-122.570;2022-09-09T00:17:38;100260.78;;;36.28;31.30
37832;BME280;23671;38.090;-122.570;2022-09-09T00:20:12;100255.59;;;36.26;31.35
37832;BME280;23671;38.090;-122.570;2022-09-09T00:22:48;100251.22;;;36.25;31.33
37832;BME280;23671;38.090;-122.570;2022-09-09T00:26:12;100253.66;;;36.27;31.10
37832;BME280;23671;38.090;-122.570;2022-09-09T00:28:24;100239.09;;;36.26;30.92
37832;BME280;23671;38.090;-122.570;2022-09-09T00:30:52;100239.69;;;36.23;31.11
37832;BME280;23671;38.090;-122.570;2022-09-09T00:33:23;100237.97;;;36.27;31.20
37832;BME280;23671;38.090;-122.570;2022-09-09T00:35:52;100238.88;;;36.23;31.53
37832;BME280;23671;38.090;-122.570;2022-09-09T00:41:19;100227.56;;;36.24;31.47
37832;BME280;23671;38.090;-122.570;2022-09-09T00:46:49;100232.03;;;36.20;30.97
37832;BME280;23671;38.090;-122.570;2022-09-09T00:49:28;100222.16;;;36.19;31.22
37832;BME280;23671;38.090;-122.570;2022-09-09T00:55:15;100220.31;;;36.15;31.05
37832;BME280;23671;38.090;-122.570;2022-09-09T00:57:45;100211.25;;;36.14;31.07
37832;BME280;23671;38.090;-122.570;2022-09-09T01:14:29;100214.38;;;35.94;30.70
37832;BME280;23671;38.090;-122.570;2022-09-09T01:17:05;100209.97;;;35.93;31.16
37832;BME280;23671;38.090;-122.570;2022-09-09T01:26:10;100200.41;;;35.72;31.16
37832;BME280;23671;38.090;-122.570;2022-09-09T01:28:40;100200.69;;;35.71;31.19
37832;BME280;23671;38.090;-122.570;2022-09-09T01:31:14;100201.59;;;35.66;31.09
37832;BME280;23671;38.090;-122.570;2022-09-09T01:33:41;100192.63;;;35.60;31.10
37832;BME280;23671;38.090;-122.570;2022-09-09T01:36:24;100211.63;;;35.57;31.26
37832;BME280;23671;38.090;-122.570;2022-09-09T01:38:53;100206.75;;;35.54;31.33
37832;BME280;23671;38.090;-122.570;2022-09-09T01:41:20;100202.13;;;35.49;31.09
37832;BME280;23671;38.090;-122.570;2022-09-09T01:43:48;100194.78;;;35.45;31.13
37832;BME280;23671;38.090;-122.570;2022-09-09T01:46:15;100199.72;;;35.43;31.06
37832;BME280;23671;38.090;-122.570;2022-09-09T01:48:43;100201.94;;;35.41;31.03
37832;BME280;23671;38.090;-122.570;2022-09-09T01:51:10;100198.09;;;35.42;31.03
37832;BME280;23671;38.090;-122.570;2022-09-09T01:53:39;100192.38;;;35.38;31.04
37832;BME280;23671;38.090;-122.570;2022-09-09T01:56:22;100198.75;;;35.34;31.00
37832;BME280;23671;38.090;-122.570;2022-09-09T02:07:34;100183.03;;;35.21;30.85
37832;BME280;23671;38.090;-122.570;2022-09-09T02:12:42;100182.03;;;35.12;30.86
37832;BME280;23671;38.090;-122.570;2022-09-09T02:16:12;100187.84;;;35.10;31.06
37832;BME280;23671;38.090;-122.570;2022-09-09T02:18:46;100187.69;;;35.02;30.86
37832;BME280;23671;38.090;-122.570;2022-09-09T02:21:11;100183.91;;;34.93;30.46
37832;BME280;23671;38.090;-122.570;2022-09-09T02:23:42;100178.44;;;34.93;30.19
37832;BME280;23671;38.090;-122.570;2022-09-09T02:26:11;100184.53;;;34.90;30.14
37832;BME280;23671;38.090;-122.570;2022-09-09T02:28:41;100185.91;;;34.87;30.91
37832;BME280;23671;38.090;-122.570;2022-09-09T02:31:08;100192.56;;;34.81;30.64
37832;BME280;23671;38.090;-122.570;2022-09-09T02:33:42;100191.53;;;34.77;30.67
37832;BME280;23671;38.090;-122.570;2022-09-09T02:36:12;100195.41;;;34.76;30.74
37832;BME280;23671;38.090;-122.570;2022-09-09T02:38:46;100188.84;;;34.72;30.81
37832;BME280;23671;38.090;-122.570;2022-09-09T02:41:31;100193.28;;;34.68;30.48
37832;BME280;23671;38.090;-122.570;2022-09-09T02:43:59;100196.41;;;34.61;30.67
37832;BME280;23671;38.090;-122.570;2022-09-09T02:47:08;100197.56;;;34.55;30.68
37832;BME280;23671;38.090;-122.570;2022-09-09T02:50:01;100193.78;;;34.51;30.23
37832;BME280;23671;38.090;-122.570;2022-09-09T02:57:58;100199.09;;;34.38;30.18
37832;BME280;23671;38.090;-122.570;2022-09-09T03:00:27;100195.59;;;34.32;30.13
37832;BME280;23671;38.090;-122.570;2022-09-09T03:02:55;100194.25;;;34.30;30.21
37832;BME280;23671;38.090;-122.570;2022-09-09T03:05:23;100196.22;;;34.24;30.59
37832;BME280;23671;38.090;-122.570;2022-09-09T03:07:50;100193.81;;;34.18;30.03
37832;BME280;23671;38.090;-122.570;2022-09-09T03:10:18;100194.69;;;34.13;29.96
37832;BME280;23671;38.090;-122.570;2022-09-09T03:12:45;100188.72;;;34.06;30.45
37832;BME280;23671;38.090;-122.570;2022-09-09T03:15:12;100187.38;;;34.04;30.57
37832;BME280;23671;38.090;-122.570;2022-09-09T03:17:39;100193.72;;;33.99;30.29
37832;BME280;23671;38.090;-122.570;2022-09-09T03:20:07;100196.19;;;33.96;30.61
37832;BME280;23671;38.090;-122.570;2022-09-09T03:22:35;100192.69;;;33.90;30.36
37832;BME280;23671;38.090;-122.570;2022-09-09T03:25:02;100201.75;;;33.85;30.28
37832;BME280;23671;38.090;-122.570;2022-09-09T03:27:29;100198.25;;;33.80;30.28
37832;BME280;23671;38.090;-122.570;2022-09-09T03:29:57;100204.63;;;33.65;29.18
37832;BME280;23671;38.090;-122.570;2022-09-09T03:32:24;100196.56;;;33.40;28.75
37832;BME280;23671;38.090;-122.570;2022-09-09T03:34:52;100212.91;;;33.12;23.63
37832;BME280;23671;38.090;-122.570;2022-09-09T03:37:20;100205.31;;;32.93;22.53
37832;BME280;23671;38.090;-122.570;2022-09-09T03:39:47;100211.56;;;33.04;24.81
37832;BME280;23671;38.090;-122.570;2022-09-09T03:42:15;100218.13;;;33.08;25.44
37832;BME280;23671;38.090;-122.570;2022-09-09T03:44:46;100224.41;;;33.09;25.34
37832;BME280;23671;38.090;-122.570;2022-09-09T03:47:17;100226.03;;;33.10;26.25
37832;BME280;23671;38.090;-122.570;2022-09-09T03:49:45;100221.66;;;33.14;27.16
37832;BME280;23671;38.090;-122.570;2022-09-09T03:52:12;100224.66;;;33.12;27.13
37832;BME280;23671;38.090;-122.570;2022-09-09T03:54:39;100235.38;;;33.09;26.81
37832;BME280;23671;38.090;-122.570;2022-09-09T03:57:08;100226.63;;;33.07;27.22
37832;BME280;23671;38.090;-122.570;2022-09-09T03:59:36;100234.03;;;33.01;27.61
37832;BME280;23671;38.090;-122.570;2022-09-09T04:02:03;100237.59;;;32.96;28.08
37832;BME280;23671;38.090;-122.570;2022-09-09T04:04:31;100241.41;;;32.90;28.01
37832;BME280;23671;38.090;-122.570;2022-09-09T04:06:58;100237.34;;;32.83;27.65
37832;BME280;23671;38.090;-122.570;2022-09-09T04:09:25;100247.19;;;32.79;28.04
